VLG9GQ LEAL-LEBL
Flight info
| Callsign | VLG9GQ |
|---|---|
| Flight time | 0h 40m |
| Altitude | 30000 |
| Route | MITOS N851 IZA N856 MARTA |
| Aircraft | A320/M-SDFGHILORVWXY/LB1 |
Departure
| Time | 2026-05-05 18:00 |
|---|---|
| Airport | Alicante-Elche Miguel Hernández Airport (LEAL) |
Arrival
| Time | 2026-05-05 18:40 |
|---|---|
| Airport | Josep Tarradellas Barcelona-El Prat Airport (LEBL) |
| Time | Latitude | Longitude | Altitude | Speed | Heading |
|---|---|---|---|---|---|
| 2026-05-05 17:41 | 38.28550 | -0.55403 | 89 ft | 0 kts | 10° |
| 2026-05-05 17:50 | 38.28548 | -0.55404 | 89 ft | 2 kts | 10° |
| 2026-05-05 17:50 | 38.28523 | -0.55409 | 90 ft | 4 kts | 4° |
| 2026-05-05 17:50 | 38.28496 | -0.55409 | 91 ft | 4 kts | 351° |
| 2026-05-05 17:50 | 38.28473 | -0.55398 | 92 ft | 4 kts | 310° |
| 2026-05-05 17:51 | 38.28466 | -0.55383 | 91 ft | 1 kts | 279° |
| 2026-05-05 17:51 | 38.28466 | -0.55381 | 91 ft | 2 kts | 279° |
| 2026-05-05 17:53 | 38.28466 | -0.55382 | 91 ft | 1 kts | 279° |
| 2026-05-05 17:53 | 38.28468 | -0.55400 | 92 ft | 2 kts | 280° |
| 2026-05-05 17:54 | 38.28472 | -0.55427 | 94 ft | 5 kts | 280° |
| 2026-05-05 17:54 | 38.28478 | -0.55467 | 93 ft | 5 kts | 280° |
| 2026-05-05 17:54 | 38.28488 | -0.55534 | 97 ft | 9 kts | 279° |
| 2026-05-05 17:54 | 38.28447 | -0.55599 | 97 ft | 11 kts | 197° |
| 2026-05-05 17:55 | 38.28380 | -0.55636 | 101 ft | 10 kts | 247° |
| 2026-05-05 17:55 | 38.28379 | -0.55714 | 101 ft | 8 kts | 276° |
| 2026-05-05 17:55 | 38.28390 | -0.55787 | 103 ft | 9 kts | 285° |
| 2026-05-05 17:55 | 38.28404 | -0.55861 | 104 ft | 9 kts | 280° |
| 2026-05-05 17:56 | 38.28415 | -0.55965 | 106 ft | 14 kts | 279° |
| 2026-05-05 17:56 | 38.28432 | -0.56087 | 108 ft | 15 kts | 280° |
| 2026-05-05 17:56 | 38.28451 | -0.56226 | 109 ft | 18 kts | 280° |
| 2026-05-05 17:56 | 38.28473 | -0.56385 | 114 ft | 18 kts | 278° |
| 2026-05-05 17:57 | 38.28491 | -0.56533 | 119 ft | 17 kts | 278° |
| 2026-05-05 17:57 | 38.28512 | -0.56680 | 121 ft | 17 kts | 285° |
| 2026-05-05 17:57 | 38.28535 | -0.56819 | 127 ft | 15 kts | 279° |
| 2026-05-05 17:57 | 38.28550 | -0.56936 | 134 ft | 12 kts | 279° |
| 2026-05-05 17:58 | 38.28565 | -0.57044 | 138 ft | 13 kts | 279° |
| 2026-05-05 17:58 | 38.28579 | -0.57151 | 143 ft | 11 kts | 279° |
| 2026-05-05 17:58 | 38.28593 | -0.57252 | 147 ft | 13 kts | 280° |
| 2026-05-05 17:58 | 38.28606 | -0.57365 | 151 ft | 12 kts | 269° |
| 2026-05-05 17:59 | 38.28546 | -0.57430 | 154 ft | 12 kts | 195° |
| 2026-05-05 17:59 | 38.28463 | -0.57430 | 154 ft | 13 kts | 146° |
| 2026-05-05 17:59 | 38.28419 | -0.57256 | 146 ft | 38 kts | 100° |
| 2026-05-05 17:59 | 38.28328 | -0.56613 | 120 ft | 106 kts | 99° |
| 2026-05-05 18:00 | 38.28168 | -0.55464 | 97 ft | 155 kts | 100° |
| 2026-05-05 18:00 | 38.27961 | -0.54009 | 461 ft | 168 kts | 104° |
| 2026-05-05 18:00 | 38.27714 | -0.52556 | 1133 ft | 168 kts | 105° |
| 2026-05-05 18:00 | 38.27429 | -0.51013 | 1383 ft | 191 kts | 105° |
| 2026-05-05 18:01 | 38.27439 | -0.49241 | 1668 ft | 216 kts | 75° |
| 2026-05-05 18:01 | 38.28209 | -0.47474 | 1975 ft | 243 kts | 57° |
| 2026-05-05 18:01 | 38.29204 | -0.45617 | 2442 ft | 263 kts | 57° |
| 2026-05-05 18:01 | 38.30240 | -0.43653 | 3283 ft | 269 kts | 57° |
| 2026-05-05 18:02 | 38.31289 | -0.41649 | 4169 ft | 274 kts | 56° |
| 2026-05-05 18:02 | 38.32348 | -0.39608 | 5075 ft | 278 kts | 56° |
| 2026-05-05 18:02 | 38.33202 | -0.37380 | 5923 ft | 284 kts | 67° |
| 2026-05-05 18:02 | 38.33930 | -0.35022 | 6746 ft | 288 kts | 67° |
| 2026-05-05 18:03 | 38.34666 | -0.32629 | 7541 ft | 293 kts | 67° |
| 2026-05-05 18:03 | 38.35416 | -0.30190 | 8339 ft | 298 kts | 67° |
| 2026-05-05 18:03 | 38.36178 | -0.27719 | 9138 ft | 302 kts | 67° |
| 2026-05-05 18:03 | 38.36982 | -0.25227 | 9912 ft | 306 kts | 65° |
| 2026-05-05 18:04 | 38.37837 | -0.22672 | 10310 ft | 325 kts | 65° |
| 2026-05-05 18:04 | 38.38763 | -0.19938 | 10519 ft | 347 kts | 65° |
| 2026-05-05 18:04 | 38.39731 | -0.17064 | 11008 ft | 357 kts | 65° |
| 2026-05-05 18:04 | 38.40713 | -0.14128 | 11615 ft | 363 kts | 65° |
| 2026-05-05 18:05 | 38.41711 | -0.11136 | 12217 ft | 370 kts | 65° |
| 2026-05-05 18:05 | 38.42709 | -0.08135 | 12822 ft | 376 kts | 66° |
| 2026-05-05 18:05 | 38.43838 | -0.05105 | 13412 ft | 381 kts | 57° |
| 2026-05-05 18:05 | 38.45420 | -0.02335 | 13964 ft | 383 kts | 44° |
| 2026-05-05 18:06 | 38.47355 | -0.00066 | 14475 ft | 383 kts | 33° |
| 2026-05-05 18:06 | 38.48857 | 0.01199 | 14821 ft | 383 kts | 25° |
| 2026-05-05 18:06 | 38.52007 | 0.03282 | 15532 ft | 388 kts | 22° |
| 2026-05-05 18:06 | 38.54418 | 0.04864 | 16080 ft | 392 kts | 23° |
| 2026-05-05 18:07 | 38.56855 | 0.06472 | 16643 ft | 396 kts | 23° |
| 2026-05-05 18:07 | 38.59311 | 0.08098 | 17203 ft | 400 kts | 23° |
| 2026-05-05 18:07 | 38.61792 | 0.09742 | 17759 ft | 404 kts | 23° |
| 2026-05-05 18:07 | 38.64301 | 0.11403 | 18284 ft | 408 kts | 23° |
| 2026-05-05 18:08 | 38.66832 | 0.13080 | 18780 ft | 412 kts | 23° |
| 2026-05-05 18:08 | 38.69385 | 0.14774 | 19286 ft | 415 kts | 23° |
| 2026-05-05 18:08 | 38.71954 | 0.16482 | 19829 ft | 418 kts | 23° |
| 2026-05-05 18:08 | 38.74542 | 0.18202 | 20336 ft | 420 kts | 23° |
| 2026-05-05 18:09 | 38.77145 | 0.19936 | 20839 ft | 423 kts | 23° |
| 2026-05-05 18:09 | 38.79763 | 0.21677 | 21330 ft | 425 kts | 22° |
| 2026-05-05 18:09 | 38.82394 | 0.23425 | 21812 ft | 427 kts | 22° |
| 2026-05-05 18:09 | 38.85040 | 0.25184 | 22285 ft | 430 kts | 22° |
| 2026-05-05 18:10 | 38.87704 | 0.26960 | 22761 ft | 432 kts | 22° |
| 2026-05-05 18:10 | 38.90384 | 0.28748 | 23238 ft | 436 kts | 22° |
| 2026-05-05 18:10 | 38.93093 | 0.30556 | 23567 ft | 441 kts | 22° |
| 2026-05-05 18:10 | 38.95826 | 0.32382 | 23917 ft | 445 kts | 22° |
| 2026-05-05 18:11 | 38.98582 | 0.34227 | 24286 ft | 448 kts | 22° |
| 2026-05-05 18:11 | 39.01352 | 0.36084 | 24661 ft | 451 kts | 22° |
| 2026-05-05 18:11 | 39.04141 | 0.37955 | 25028 ft | 453 kts | 22° |
| 2026-05-05 18:11 | 39.06941 | 0.39836 | 25420 ft | 455 kts | 22° |
| 2026-05-05 18:12 | 39.09753 | 0.41725 | 25818 ft | 457 kts | 22° |
| 2026-05-05 18:12 | 39.12581 | 0.43625 | 26208 ft | 460 kts | 21° |
| 2026-05-05 18:12 | 39.15389 | 0.45514 | 26486 ft | 464 kts | 21° |
| 2026-05-05 18:12 | 39.18264 | 0.47453 | 26806 ft | 468 kts | 21° |
| 2026-05-05 18:13 | 39.21155 | 0.49406 | 27137 ft | 471 kts | 21° |
| 2026-05-05 18:13 | 39.24067 | 0.51372 | 27485 ft | 473 kts | 21° |
| 2026-05-05 18:13 | 39.26992 | 0.53348 | 27832 ft | 476 kts | 21° |
| 2026-05-05 18:13 | 39.29934 | 0.55336 | 28181 ft | 479 kts | 21° |
| 2026-05-05 18:14 | 39.32891 | 0.57338 | 28529 ft | 481 kts | 21° |
| 2026-05-05 18:14 | 39.35866 | 0.59355 | 28908 ft | 484 kts | 21° |
| 2026-05-05 18:14 | 39.38868 | 0.61386 | 29138 ft | 490 kts | 21° |
| 2026-05-05 18:14 | 39.41903 | 0.63441 | 29436 ft | 494 kts | 21° |
| 2026-05-05 18:15 | 39.44952 | 0.65510 | 29744 ft | 497 kts | 21° |
| 2026-05-05 18:15 | 39.48000 | 0.67628 | 29886 ft | 495 kts | 25° |
| 2026-05-05 18:15 | 39.50785 | 0.70236 | 29898 ft | 492 kts | 32° |
| 2026-05-05 18:16 | 39.56164 | 0.75641 | 29898 ft | 488 kts | 32° |
| 2026-05-05 18:16 | 39.61502 | 0.81045 | 29897 ft | 486 kts | 33° |
| 2026-05-05 18:17 | 39.66838 | 0.86446 | 29906 ft | 488 kts | 33° |
| 2026-05-05 18:17 | 39.72205 | 0.91897 | 29904 ft | 486 kts | 33° |
| 2026-05-05 18:18 | 39.77489 | 0.97284 | 29908 ft | 486 kts | 33° |
| 2026-05-05 18:18 | 39.82812 | 1.02711 | 29899 ft | 487 kts | 33° |
| 2026-05-05 18:19 | 39.88154 | 1.08159 | 29916 ft | 488 kts | 33° |
| 2026-05-05 18:19 | 39.93462 | 1.13587 | 29595 ft | 478 kts | 33° |
| 2026-05-05 18:19 | 39.96045 | 1.16249 | 29297 ft | 470 kts | 33° |
| 2026-05-05 18:20 | 39.98601 | 1.18885 | 29014 ft | 466 kts | 33° |
| 2026-05-05 18:20 | 40.01135 | 1.21496 | 28673 ft | 462 kts | 33° |
| 2026-05-05 18:20 | 40.03653 | 1.24089 | 28188 ft | 461 kts | 33° |
| 2026-05-05 18:20 | 40.06169 | 1.26680 | 27674 ft | 460 kts | 33° |
| 2026-05-05 18:21 | 40.08672 | 1.29260 | 27191 ft | 458 kts | 33° |
| 2026-05-05 18:21 | 40.11169 | 1.31836 | 26722 ft | 456 kts | 33° |
| 2026-05-05 18:21 | 40.13655 | 1.34398 | 26258 ft | 455 kts | 33° |
| 2026-05-05 18:21 | 40.16135 | 1.36957 | 25783 ft | 454 kts | 33° |
| 2026-05-05 18:22 | 40.18613 | 1.39515 | 25304 ft | 453 kts | 33° |
| 2026-05-05 18:22 | 40.21084 | 1.42070 | 24822 ft | 453 kts | 33° |
| 2026-05-05 18:22 | 40.23554 | 1.44633 | 24321 ft | 453 kts | 33° |
| 2026-05-05 18:22 | 40.26022 | 1.47196 | 23831 ft | 454 kts | 33° |
| 2026-05-05 18:23 | 40.28505 | 1.49776 | 23252 ft | 456 kts | 33° |
| 2026-05-05 18:23 | 40.30983 | 1.52351 | 22715 ft | 454 kts | 33° |
| 2026-05-05 18:23 | 40.33449 | 1.54913 | 22253 ft | 449 kts | 34° |
| 2026-05-05 18:23 | 40.35892 | 1.57457 | 21723 ft | 447 kts | 34° |
| 2026-05-05 18:24 | 40.38290 | 1.59963 | 21105 ft | 436 kts | 34° |
| 2026-05-05 18:24 | 40.40633 | 1.62377 | 20664 ft | 418 kts | 30° |
| 2026-05-05 18:24 | 40.42978 | 1.64407 | 20561 ft | 392 kts | 27° |
| 2026-05-05 18:24 | 40.45198 | 1.66307 | 20476 ft | 372 kts | 27° |
| 2026-05-05 18:25 | 40.47382 | 1.68154 | 20405 ft | 380 kts | 27° |
| 2026-05-05 18:25 | 40.48891 | 1.69413 | 20104 ft | 392 kts | 27° |
| 2026-05-05 18:25 | 40.51982 | 1.71993 | 19496 ft | 393 kts | 28° |
| 2026-05-05 18:25 | 40.54278 | 1.73927 | 19110 ft | 390 kts | 28° |
| 2026-05-05 18:26 | 40.56551 | 1.75849 | 18729 ft | 387 kts | 28° |
| 2026-05-05 18:26 | 40.58808 | 1.77760 | 18357 ft | 384 kts | 28° |
| 2026-05-05 18:26 | 40.61043 | 1.79656 | 17946 ft | 381 kts | 29° |
| 2026-05-05 18:26 | 40.63263 | 1.81542 | 17516 ft | 378 kts | 29° |
| 2026-05-05 18:27 | 40.65466 | 1.83410 | 17077 ft | 375 kts | 29° |
| 2026-05-05 18:27 | 40.67653 | 1.85261 | 16666 ft | 372 kts | 29° |
| 2026-05-05 18:27 | 40.69825 | 1.87098 | 16251 ft | 370 kts | 29° |
| 2026-05-05 18:27 | 40.71980 | 1.88925 | 15843 ft | 367 kts | 29° |
| 2026-05-05 18:28 | 40.76243 | 1.92552 | 15028 ft | 362 kts | 30° |
| 2026-05-05 18:28 | 40.78354 | 1.94350 | 14637 ft | 361 kts | 30° |
| 2026-05-05 18:28 | 40.80454 | 1.96141 | 14251 ft | 359 kts | 30° |
| 2026-05-05 18:29 | 40.82543 | 1.97924 | 13868 ft | 357 kts | 30° |
| 2026-05-05 18:29 | 40.84621 | 1.99696 | 13457 ft | 355 kts | 30° |
| 2026-05-05 18:29 | 40.86688 | 2.01461 | 13039 ft | 353 kts | 30° |
| 2026-05-05 18:29 | 40.88742 | 2.03217 | 12614 ft | 351 kts | 30° |
| 2026-05-05 18:30 | 40.90783 | 2.04960 | 12218 ft | 349 kts | 30° |
| 2026-05-05 18:30 | 40.92816 | 2.06697 | 11807 ft | 347 kts | 30° |
| 2026-05-05 18:30 | 40.94836 | 2.08428 | 11393 ft | 345 kts | 30° |
| 2026-05-05 18:30 | 40.96842 | 2.10151 | 11005 ft | 343 kts | 30° |
| 2026-05-05 18:31 | 40.98839 | 2.11867 | 10611 ft | 341 kts | 30° |
| 2026-05-05 18:31 | 41.00825 | 2.13571 | 10215 ft | 339 kts | 30° |
| 2026-05-05 18:31 | 41.02801 | 2.15267 | 9839 ft | 338 kts | 30° |
| 2026-05-05 18:31 | 41.04767 | 2.16959 | 9419 ft | 335 kts | 30° |
| 2026-05-05 18:32 | 41.06685 | 2.18615 | 9028 ft | 322 kts | 30° |
| 2026-05-05 18:32 | 41.08517 | 2.20199 | 8658 ft | 308 kts | 30° |
| 2026-05-05 18:32 | 41.10294 | 2.21733 | 8307 ft | 304 kts | 30° |
| 2026-05-05 18:32 | 41.12064 | 2.23257 | 7962 ft | 303 kts | 30° |
| 2026-05-05 18:33 | 41.13826 | 2.24774 | 7605 ft | 301 kts | 30° |
| 2026-05-05 18:33 | 41.14987 | 2.25775 | 7374 ft | 300 kts | 30° |
| 2026-05-05 18:33 | 41.16712 | 2.27264 | 7018 ft | 290 kts | 29° |
| 2026-05-05 18:33 | 41.18425 | 2.28617 | 6678 ft | 284 kts | 27° |
| 2026-05-05 18:34 | 41.20132 | 2.29927 | 6339 ft | 283 kts | 27° |
| 2026-05-05 18:34 | 41.21841 | 2.31229 | 5981 ft | 283 kts | 27° |
| 2026-05-05 18:34 | 41.23546 | 2.32524 | 5623 ft | 281 kts | 27° |
| 2026-05-05 18:34 | 41.25246 | 2.33809 | 5271 ft | 282 kts | 27° |
| 2026-05-05 18:35 | 41.26992 | 2.34977 | 4921 ft | 279 kts | 14° |
| 2026-05-05 18:35 | 41.28884 | 2.35161 | 4571 ft | 272 kts | 346° |
| 2026-05-05 18:35 | 41.30639 | 2.34360 | 4210 ft | 262 kts | 333° |
| 2026-05-05 18:35 | 41.32268 | 2.33385 | 3855 ft | 252 kts | 332° |
| 2026-05-05 18:36 | 41.33828 | 2.32419 | 3509 ft | 243 kts | 332° |
| 2026-05-05 18:36 | 41.35136 | 2.31141 | 3165 ft | 228 kts | 306° |
| 2026-05-05 18:36 | 41.35852 | 2.29345 | 2934 ft | 213 kts | 285° |
| 2026-05-05 18:36 | 41.36043 | 2.27450 | 2728 ft | 202 kts | 267° |
| 2026-05-05 18:37 | 41.35777 | 2.25672 | 2507 ft | 193 kts | 250° |
| 2026-05-05 18:37 | 41.35235 | 2.24057 | 2258 ft | 190 kts | 247° |
| 2026-05-05 18:37 | 41.34697 | 2.22475 | 2031 ft | 184 kts | 247° |
| 2026-05-05 18:37 | 41.34179 | 2.20953 | 1767 ft | 175 kts | 247° |
| 2026-05-05 18:38 | 41.33698 | 2.19542 | 1543 ft | 159 kts | 247° |
| 2026-05-05 18:38 | 41.33264 | 2.18268 | 1334 ft | 145 kts | 247° |
| 2026-05-05 18:38 | 41.32854 | 2.17063 | 1136 ft | 142 kts | 247° |
| 2026-05-05 18:38 | 41.32447 | 2.15869 | 955 ft | 140 kts | 247° |
| 2026-05-05 18:39 | 41.32048 | 2.14691 | 752 ft | 139 kts | 248° |
| 2026-05-05 18:39 | 41.31651 | 2.13524 | 571 ft | 139 kts | 245° |
| 2026-05-05 18:39 | 41.31248 | 2.12348 | 362 ft | 141 kts | 244° |
| 2026-05-05 18:39 | 41.30841 | 2.11150 | 172 ft | 143 kts | 244° |
| 2026-05-05 18:40 | 41.30427 | 2.09949 | 27 ft | 138 kts | 243° |
| 2026-05-05 18:40 | 41.30076 | 2.08939 | 19 ft | 104 kts | 246° |
| 2026-05-05 18:40 | 41.29839 | 2.08255 | 22 ft | 58 kts | 247° |
| 2026-05-05 18:40 | 41.29730 | 2.07984 | 17 ft | 21 kts | 229° |
| 2026-05-05 18:41 | 41.29630 | 2.07866 | 17 ft | 16 kts | 217° |
| 2026-05-05 18:41 | 41.29567 | 2.07802 | 16 ft | 8 kts | 217° |
| 2026-05-05 18:41 | 41.29520 | 2.07808 | 19 ft | 7 kts | 112° |
| 2026-05-05 18:41 | 41.29530 | 2.07878 | 17 ft | 9 kts | 71° |
| 2026-05-05 18:42 | 41.29512 | 2.07947 | 17 ft | 9 kts | 146° |
| 2026-05-05 18:42 | 41.29456 | 2.07976 | 17 ft | 9 kts | 156° |
| 2026-05-05 18:42 | 41.29409 | 2.08004 | 17 ft | 8 kts | 161° |
| 2026-05-05 18:42 | 41.29362 | 2.08031 | 18 ft | 6 kts | 156° |
| 2026-05-05 18:43 | 41.29324 | 2.08055 | 20 ft | 6 kts | 155° |
| 2026-05-05 18:43 | 41.29299 | 2.08073 | 20 ft | 1 kts | 135° |
| 2026-05-05 18:43 | 41.29293 | 2.08098 | 19 ft | 3 kts | 98° |
| 2026-05-05 18:43 | 41.29304 | 2.08137 | 19 ft | 6 kts | 64° |
| 2026-05-05 18:44 | 41.29314 | 2.08163 | 19 ft | 4 kts | 70° |
| 2026-05-05 18:44 | 41.29310 | 2.08194 | 19 ft | 2 kts | 128° |
| 2026-05-05 18:44 | 41.29295 | 2.08207 | 20 ft | 3 kts | 162° |
| 2026-05-05 18:44 | 41.29267 | 2.08209 | 19 ft | 5 kts | 180° |
| 2026-05-05 18:45 | 41.29244 | 2.08208 | 19 ft | 0 kts | 182° |
| 2026-05-05 18:46 | 41.29240 | 2.08208 | 19 ft | 0 kts | 183° |